Etusivu
METAR-TAF:

METAR-TAF

Lentoasemat :

Siegen, Saksa

Leveyspiiri: 50-42-28N, Pituuspiiri: 008-04-59E, korkeus merenpinnasta: 602 m

Tämänhetkinen sää

Tämä raportti tehtiin 43 minuuttia sitten, kello 21.20 UTC
Tuuli 5 kn pohjoisesta
Lämpötila 0°C
Kosteus 69%
Ilmanpaine 1022 hPa
Näkyvyys 10 km tai enemmän

METAR: EDGS 212120Z AUTO 01005KT 9999 // NCD 00/M05 Q1022

Aika: 00:03 (22:03 UTC)

Sääennuste

Tämä raportti tehtiin 5 tuntia ja 3 minuuttia sitten, kello 17.00 UTC
Ennuste voimassa 21. päivästä klo 18 UTC - 22. päivään klo 03 UTC
Tuuli 10 kn pohjoisesta/koillisesta
Näkyvyys 10 km tai enemmän
Hajanaisia pilviä 3000 ft:n korkeudessa
Tulossa
21. päivästä klo 18 UTC - 21. päivään klo 21 UTC
Tuuli 5 kn pohjoisesta/koillisesta

TAF: EDGS 211700Z 2118/2203 03010KT 9999 SCT030 BECMG 2118/2121 03005KT

Säähavainnot ja -ennusteet yli 4000 lentoasemalta (METAR- ja TAF-raportit).

Käytössä olevat sääasemat on merkitty karttaan keltaisilla ja punaisilla pisteillä.

Aseta hiiri pisteen päälle nähdäksesi sääaseman nimen.

Klikkaa sitten nähdäksesi säähavainnot ja -ennusteet.

Kartan vaihtaminen: klikkaa mustalla rastilla varustettuja vihreitä pisteitä, niin voit zoomata sisään; viivalla varustettua vihreää pistettä, niin voit zoomata ulos tai vihreitä nuolia, niin pääset viereisille kartoille.


METAR-TAF: